Time;durP1;ratioP1;P1;durP2;ratioP2;P2;SDS_P1;SDS_P2;PMS_P1;PMS_P2;Temp;Humidity;BMP_temperature;BMP_pressure;BME280_temperature;BME280_humidity;BME280_pressure;Samples;Min_cycle;Max_cycle;Signal;HPM_P1;HPM_P2
2023/12/17 00:01:38;;;;;;;1.43;1.20;;;7.80;99.90;7.10;101036;;;;600008;235;24009;-77
2023/12/17 00:04:06;;;;;;;0.90;0.87;;;7.80;99.90;7.00;101017;;;;600197;235;24007;-80
2023/12/17 00:06:36;;;;;;;0.83;0.83;;;7.90;99.90;7.10;101037;;;;600253;235;23998;-82
2023/12/17 00:09:08;;;;;;;0.83;0.83;;;7.90;99.90;7.10;101043;;;;603242;235;24072;-78
2023/12/17 00:11:32;;;;;;;1.57;0.50;;;7.90;99.90;7.10;101018;;;;602590;235;24023;-77
2023/12/17 00:14:00;;;;;;;2.00;1.23;;;7.90;99.90;7.10;101017;;;;602267;235;24000;-80
2023/12/17 00:16:32;;;;;;;0.93;0.90;;;8.00;99.90;7.20;101028;;;;600443;235;23993;-77
2023/12/17 00:18:56;;;;;;;0.83;0.83;;;8.00;99.90;7.20;101022;;;;599412;235;24056;-80
2023/12/17 00:21:24;;;;;;;1.13;0.53;;;8.00;99.90;7.20;101028;;;;601267;234;24001;-77
2023/12/17 00:23:52;;;;;;;0.57;0.53;;;8.00;99.90;7.20;101023;;;;600154;234;24032;-76
2023/12/17 00:26:19;;;;;;;0.70;0.70;;;8.00;99.90;7.20;101003;;;;600300;234;24025;-76
2023/12/17 00:28:47;;;;;;;0.70;0.70;;;8.00;99.90;7.20;100994;;;;599833;235;23995;-76
2023/12/17 00:31:16;;;;;;;0.50;0.50;;;8.00;99.90;7.30;100984;;;;600050;235;24022;-76
2023/12/17 00:33:44;;;;;;;1.30;1.20;;;8.00;99.90;7.30;100981;;;;605939;233;24053;-76
2023/12/17 00:36:12;;;;;;;1.10;1.00;;;8.10;99.90;7.30;100977;;;;590730;238;24026;-77
2023/12/17 00:38:40;;;;;;;0.80;0.80;;;8.10;99.90;7.30;100959;;;;589790;238;24032;-76
2023/12/17 00:41:08;;;;;;;1.33;0.87;;;8.10;99.90;7.30;100964;;;;590042;238;24027;-76
2023/12/17 00:43:36;;;;;;;0.97;0.80;;;8.10;99.90;7.30;100954;;;;589488;238;24032;-76
2023/12/17 00:46:03;;;;;;;1.23;1.10;;;8.10;99.90;7.30;100949;;;;603331;233;23982;-76
2023/12/17 00:48:31;;;;;;;0.60;0.60;;;8.10;99.90;7.30;100959;;;;594737;238;24041;-76
2023/12/17 00:50:59;;;;;;;1.20;1.20;;;8.10;99.90;7.30;100930;;;;590246;238;24127;-79
2023/12/17 00:53:27;;;;;;;1.43;1.07;;;8.20;99.90;7.30;100931;;;;606986;233;24039;-76
2023/12/17 00:55:55;;;;;;;1.40;1.30;;;8.20;99.90;7.40;100926;;;;592376;237;24022;-76
2023/12/17 00:58:23;;;;;;;1.00;1.00;;;8.20;99.90;7.40;100921;;;;589495;238;24027;-78
2023/12/17 01:00:51;;;;;;;1.77;1.23;;;8.20;99.90;7.40;100930;;;;589796;238;24030;-75
2023/12/17 01:03:19;;;;;;;2.57;2.00;;;8.30;99.90;7.50;100945;;;;584623;238;35050;-76
2023/12/17 01:05:47;;;;;;;2.60;1.63;;;8.20;99.90;7.50;100942;;;;589867;238;24029;-75
2023/12/17 01:08:16;;;;;;;3.50;1.80;;;8.30;99.90;7.50;100947;;;;590410;238;24044;-76
2023/12/17 01:10:44;;;;;;;5.03;1.50;;;8.30;99.90;7.50;100932;;;;589812;238;24036;-75
2023/12/17 01:13:12;;;;;;;1.30;1.20;;;8.30;99.90;7.50;100945;;;;589773;238;24026;-77
2023/12/17 01:15:40;;;;;;;1.63;0.90;;;8.30;99.90;7.50;100941;;;;594354;238;24022;-76
2023/12/17 01:18:08;;;;;;;1.83;1.57;;;8.30;99.90;7.50;100947;;;;589256;238;24042;-76
2023/12/17 01:20:36;;;;;;;1.80;0.63;;;8.30;99.90;7.60;100933;;;;589977;237;24009;-76
2023/12/17 01:23:04;;;;;;;3.03;1.87;;;8.30;99.90;7.60;100932;;;;589227;238;24025;-75
2023/12/17 01:25:32;;;;;;;2.37;1.70;;;8.30;99.90;7.60;100930;;;;589184;238;24037;-76
2023/12/17 01:28:01;;;;;;;1.10;1.10;;;8.30;99.90;7.50;100921;;;;594444;238;24055;-78
2023/12/17 01:30:29;;;;;;;4.50;1.80;;;8.30;99.90;7.50;100929;;;;603137;237;24041;-76
2023/12/17 01:32:57;;;;;;;1.97;1.77;;;8.30;99.90;7.50;100931;;;;596382;237;24020;-78
2023/12/17 01:35:24;;;;;;;1.00;1.00;;;8.30;99.90;7.50;100895;;;;590878;238;24037;-77
2023/12/17 01:37:52;;;;;;;1.70;0.70;;;8.30;99.90;7.60;100914;;;;591239;238;24018;-76
2023/12/17 01:40:21;;;;;;;2.90;1.30;;;8.40;99.90;7.60;100916;;;;590677;238;24022;-77
2023/12/17 01:42:49;;;;;;;1.03;0.83;;;8.30;99.90;7.60;100901;;;;590325;238;24056;-76
2023/12/17 01:45:17;;;;;;;1.53;1.37;;;8.30;99.90;7.60;100908;;;;594785;238;24039;-76
2023/12/17 01:47:45;;;;;;;5.50;1.77;;;8.30;99.90;7.60;100916;;;;594326;238;24033;-76
2023/12/17 01:50:16;;;;;;;2.03;1.83;;;8.30;99.90;7.60;100919;;;;594205;238;24050;-76
2023/12/17 01:52:41;;;;;;;4.00;1.47;;;8.40;99.90;7.60;100919;;;;592385;238;24117;-76
2023/12/17 01:55:13;;;;;;;1.13;1.10;;;8.40;99.90;7.60;100932;;;;594466;238;24030;-76
2023/12/17 01:57:37;;;;;;;2.40;1.53;;;8.40;99.90;7.60;100931;;;;611661;234;24036;-77
2023/12/17 02:00:09;;;;;;;3.17;1.47;;;8.40;99.90;7.60;100939;;;;599220;235;23992;-77
2023/12/17 02:02:33;;;;;;;3.50;1.37;;;8.40;99.90;7.70;100959;;;;598203;235;24022;-75
2023/12/17 02:05:05;;;;;;;3.80;2.53;;;8.50;99.90;7.70;100947;;;;597728;235;34733;-76
2023/12/17 02:07:30;;;;;;;2.67;2.40;;;8.50;99.90;7.70;100955;;;;602319;235;24059;-76
2023/12/17 02:09:58;;;;;;;1.33;1.23;;;8.50;99.90;7.70;100953;;;;599565;235;24008;-75
2023/12/17 02:12:32;;;;;;;1.23;1.13;;;8.50;99.90;7.70;100953;;;;599447;235;24075;-77
2023/12/17 02:14:56;;;;;;;2.10;0.83;;;8.50;99.90;7.70;100958;;;;602473;235;24077;-78
2023/12/17 02:17:30;;;;;;;2.03;1.70;;;8.50;99.90;7.70;100961;;;;600583;235;24085;-76
2023/12/17 02:19:58;;;;;;;2.10;1.53;;;8.50;99.90;7.70;100958;;;;602426;235;24004;-78
2023/12/17 02:22:26;;;;;;;1.67;1.47;;;8.60;99.90;7.80;100950;;;;600813;235;23990;-75
2023/12/17 02:24:57;;;;;;;1.90;1.53;;;8.50;99.90;7.70;100946;;;;603326;235;24022;-75
2023/12/17 02:27:24;;;;;;;1.73;1.63;;;8.50;99.90;7.70;100958;;;;603511;235;24041;-75
2023/12/17 02:29:55;;;;;;;2.60;1.13;;;8.60;99.90;7.80;100954;;;;603924;235;24080;-77
2023/12/17 02:32:24;;;;;;;1.47;0.83;;;8.60;99.90;7.80;100966;;;;603454;235;24042;-83
2023/12/17 02:34:52;;;;;;;1.33;1.03;;;8.50;99.90;7.70;100968;;;;602070;235;24098;-84
2023/12/17 02:37:16;;;;;;;4.00;1.30;;;8.50;99.90;7.70;100961;;;;602099;235;24078;-80
2023/12/17 02:39:47;;;;;;;3.60;1.90;;;8.50;99.90;7.80;100975;;;;602968;234;24013;-77
2023/12/17 02:42:12;;;;;;;1.30;1.23;;;8.50;99.90;7.80;100970;;;;599417;233;24019;-79
2023/12/17 02:44:40;;;;;;;1.00;1.00;;;8.50;99.90;7.80;100956;;;;604417;234;24049;-78
2023/12/17 02:47:07;;;;;;;1.00;0.87;;;8.50;99.90;7.80;100964;;;;600812;234;24055;-79
2023/12/17 02:49:35;;;;;;;1.63;1.57;;;8.50;99.90;7.80;100964;;;;600114;234;24073;-76
2023/12/17 02:52:03;;;;;;;3.77;1.53;;;8.50;99.90;7.80;100977;;;;600575;235;24016;-75
2023/12/17 02:54:31;;;;;;;3.03;1.50;;;8.50;99.90;7.80;100951;;;;600621;235;23998;-79
2023/12/17 02:56:59;;;;;;;2.67;1.70;;;8.50;99.90;7.80;100980;;;;603000;235;24009;-80
2023/12/17 02:59:27;;;;;;;1.03;1.00;;;8.50;99.90;7.80;100981;;;;600356;235;24066;-81
2023/12/17 03:01:55;;;;;;;0.60;0.60;;;8.60;99.90;7.80;100988;;;;600466;235;24018;-81
2023/12/17 03:04:24;;;;;;;1.33;0.90;;;8.60;99.90;7.80;100988;;;;602785;234;24003;-80
2023/12/17 03:06:52;;;;;;;2.53;1.90;;;8.60;99.90;7.80;100992;;;;600672;235;24014;-76
2023/12/17 03:09:19;;;;;;;0.80;0.80;;;8.60;99.90;7.80;100995;;;;600306;235;24101;-78
2023/12/17 03:11:50;;;;;;;1.27;1.17;;;8.60;99.90;7.80;101014;;;;602231;235;24102;-76
2023/12/17 03:14:16;;;;;;;2.37;1.40;;;8.60;99.90;7.80;101028;;;;602414;235;24023;-75
2023/12/17 03:16:45;;;;;;;3.63;1.53;;;8.60;99.90;7.80;101030;;;;600254;235;23980;-75
2023/12/17 03:19:13;;;;;;;1.60;1.23;;;8.60;99.90;7.80;101031;;;;603090;235;24016;-75
2023/12/17 03:21:40;;;;;;;1.70;1.60;;;8.60;99.90;7.80;101025;;;;599883;235;24011;-75
2023/12/17 03:24:08;;;;;;;1.00;0.93;;;8.60;99.90;7.80;101048;;;;599949;235;24030;-76
2023/12/17 03:26:36;;;;;;;2.40;2.10;;;8.60;99.90;7.80;101023;;;;599853;235;24006;-75
2023/12/17 03:29:04;;;;;;;1.83;1.17;;;8.60;99.90;7.80;101022;;;;599531;235;24019;-77
2023/12/17 03:31:32;;;;;;;1.20;1.17;;;8.60;99.90;7.80;101034;;;;602552;235;23992;-81
2023/12/17 03:34:00;;;;;;;0.90;0.90;;;8.60;99.90;7.80;101050;;;;599704;235;23999;-77
2023/12/17 03:36:28;;;;;;;1.97;1.20;;;8.50;99.90;7.80;101018;;;;603020;235;24003;-82
2023/12/17 03:38:56;;;;;;;2.70;1.57;;;8.60;99.90;7.80;101047;;;;599767;235;24011;-81
2023/12/17 03:41:27;;;;;;;1.13;1.03;;;8.60;99.90;7.80;101019;;;;602162;235;24013;-77
2023/12/17 03:43:55;;;;;;;2.77;1.53;;;8.60;99.90;7.80;101033;;;;602362;234;24000;-75
2023/12/17 03:46:26;;;;;;;3.57;1.53;;;8.50;99.90;7.80;101038;;;;602440;235;24014;-83
2023/12/17 03:48:50;;;;;;;4.27;2.40;;;8.50;99.90;7.80;101029;;;;597186;235;34746;-81
2023/12/17 03:51:18;;;;;;;3.20;2.13;;;8.60;99.90;7.80;101039;;;;608541;235;24014;-85
2023/12/17 03:53:46;;;;;;;1.37;1.27;;;8.60;99.90;7.80;101059;;;;599862;232;23991;-81
2023/12/17 03:56:18;;;;;;;2.07;1.50;;;8.60;99.90;7.80;101058;;;;601881;234;24091;-83
2023/12/17 03:58:43;;;;;;;2.77;1.37;;;8.60;99.90;7.80;101061;;;;603672;234;24004;-80
2023/12/17 04:01:11;;;;;;;2.37;1.70;;;8.60;99.90;7.80;101055;;;;600961;234;23995;-80
2023/12/17 04:03:39;;;;;;;0.93;0.90;;;8.60;99.90;7.80;101029;;;;604136;235;24002;-82
2023/12/17 04:06:10;;;;;;;2.30;1.63;;;8.60;99.90;7.80;101025;;;;600525;235;24013;-78
2023/12/17 04:08:34;;;;;;;4.13;2.20;;;8.60;99.90;7.80;101039;;;;602568;235;24019;-81
2023/12/17 04:11:02;;;;;;;3.60;1.40;;;8.50;99.90;7.70;101044;;;;603304;235;23995;-78
2023/12/17 04:13:30;;;;;;;1.40;1.13;;;8.50;99.90;7.70;101035;;;;598805;235;23986;-77
2023/12/17 04:15:59;;;;;;;3.10;2.20;;;8.50;99.90;7.70;101045;;;;602831;235;24019;-76
2023/12/17 04:18:27;;;;;;;1.90;1.53;;;8.50;99.90;7.70;101049;;;;599764;235;24008;-78
2023/12/17 04:20:55;;;;;;;3.57;2.10;;;9.10;99.90;7.70;101034;;;;598100;233;34846;-77
2023/12/17 04:23:23;;;;;;;4.67;2.53;;;8.40;99.90;7.70;101037;;;;600246;235;23994;-76
2023/12/17 04:25:51;;;;;;;1.70;1.60;;;8.40;99.90;7.70;101077;;;;600187;235;24074;-76
2023/12/17 04:28:19;;;;;;;2.70;2.30;;;8.40;99.90;7.60;101062;;;;595035;235;34733;-76
2023/12/17 04:30:47;;;;;;;3.37;2.00;;;8.40;99.90;7.70;101063;;;;599993;235;23994;-75
2023/12/17 04:33:15;;;;;;;2.10;1.87;;;8.40;99.90;7.60;101074;;;;599922;235;24027;-75
2023/12/17 04:35:43;;;;;;;2.00;1.83;;;8.40;99.90;7.60;101074;;;;602692;234;24022;-76
2023/12/17 04:38:14;;;;;;;1.83;1.73;;;8.40;99.90;7.60;101067;;;;599328;235;24021;-75
2023/12/17 04:40:39;;;;;;;1.70;1.60;;;8.40;99.90;7.60;101094;;;;599054;235;24008;-76
2023/12/17 04:43:07;;;;;;;1.23;1.07;;;8.40;99.90;7.60;101099;;;;599534;234;23984;-75
2023/12/17 04:45:34;;;;;;;3.37;1.93;;;8.40;99.90;7.60;101104;;;;599951;234;25066;-75
2023/12/17 04:48:02;;;;;;;1.00;1.00;;;8.40;99.90;7.60;101102;;;;599866;235;24011;-76
2023/12/17 04:50:31;;;;;;;2.57;1.43;;;8.40;99.90;7.60;101107;;;;599882;235;24018;-75
2023/12/17 04:52:59;;;;;;;4.50;2.20;;;8.40;99.90;7.70;101118;;;;597667;235;34784;-76
2023/12/17 04:55:27;;;;;;;4.67;2.87;;;8.40;99.90;7.60;101118;;;;607487;230;23988;-76
2023/12/17 04:57:56;;;;;;;2.80;2.20;;;8.40;99.90;7.60;101127;;;;599957;235;24021;-76
2023/12/17 05:00:23;;;;;;;3.23;1.73;;;8.40;99.90;7.60;101125;;;;602991;235;23995;-76
2023/12/17 05:02:51;;;;;;;1.47;1.37;;;8.30;99.90;7.50;101128;;;;599899;235;25040;-76
2023/12/17 05:05:23;;;;;;;1.03;0.90;;;8.30;99.90;7.50;101136;;;;603067;232;23998;-76
2023/12/17 05:07:47;;;;;;;1.50;1.30;;;8.30;99.90;7.50;101142;;;;603405;234;24035;-75
2023/12/17 05:10:15;;;;;;;2.33;2.13;;;8.20;99.90;7.40;101134;;;;600714;234;24019;-76
2023/12/17 05:12:43;;;;;;;5.53;2.90;;;8.20;99.90;7.40;101141;;;;595187;234;34755;-75
2023/12/17 05:15:11;;;;;;;5.93;2.30;;;8.10;99.90;7.40;101159;;;;603293;235;24000;-75
2023/12/17 05:17:39;;;;;;;3.00;2.03;;;8.10;99.90;7.30;101153;;;;599923;235;24007;-76
2023/12/17 05:20:11;;;;;;;3.03;2.50;;;8.00;99.90;7.30;101147;;;;594757;235;34824;-77
2023/12/17 05:22:36;;;;;;;2.30;2.10;;;8.00;99.90;7.20;101147;;;;599701;235;24070;-79
2023/12/17 05:25:05;;;;;;;3.93;1.67;;;8.00;99.90;7.20;101174;;;;599694;235;24005;-75
2023/12/17 05:27:33;;;;;;;2.17;1.80;;;7.90;99.90;7.20;101176;;;;602814;234;24001;-76
2023/12/17 05:30:01;;;;;;;4.43;1.13;;;7.90;99.90;7.10;101177;;;;600265;235;24013;-75
2023/12/17 05:32:29;;;;;;;3.67;1.50;;;7.90;99.90;7.10;101187;;;;599749;235;24009;-75
2023/12/17 05:34:57;;;;;;;1.67;1.50;;;7.90;99.90;7.10;101186;;;;600292;235;24003;-76
2023/12/17 05:37:25;;;;;;;0.70;0.70;;;7.80;99.90;7.10;101179;;;;599337;235;24009;-75
2023/12/17 05:39:52;;;;;;;1.43;1.00;;;7.80;99.90;7.10;101178;;;;600007;235;24033;-76
2023/12/17 05:42:20;;;;;;;0.30;0.30;;;7.80;99.90;7.10;101190;;;;599823;235;23998;-77
2023/12/17 05:44:48;;;;;;;1.40;1.10;;;7.80;99.90;7.00;101194;;;;599055;235;24018;-76
2023/12/17 05:47:20;;;;;;;0.73;0.67;;;7.80;99.90;7.00;101186;;;;599576;235;24018;-76
2023/12/17 05:49:44;;;;;;;2.27;0.90;;;7.80;99.90;7.00;101190;;;;602480;235;24011;-79
2023/12/17 05:52:12;;;;;;;2.97;1.30;;;7.70;99.90;7.00;101195;;;;599615;235;23999;-78
2023/12/17 05:54:40;;;;;;;1.47;1.20;;;7.80;99.90;7.00;101197;;;;600315;235;24003;-76
2023/12/17 05:57:08;;;;;;;3.37;1.93;;;7.70;99.90;7.00;101186;;;;594567;235;34710;-81
2023/12/17 05:59:36;;;;;;;1.77;1.20;;;7.70;99.90;7.00;101199;;;;600303;235;23993;-84
2023/12/17 06:02:04;;;;;;;2.27;1.23;;;7.70;99.90;7.00;101208;;;;603217;235;24069;-75
2023/12/17 06:04:31;;;;;;;1.53;1.40;;;7.70;99.90;7.00;101214;;;;603110;235;24015;-76
2023/12/17 06:07:03;;;;;;;1.07;1.07;;;7.70;99.90;7.00;101209;;;;603170;235;24038;-76
2023/12/17 06:09:27;;;;;;;1.27;0.90;;;7.70;99.90;7.00;101209;;;;602566;235;24027;-76
2023/12/17 06:11:57;;;;;;;1.97;1.47;;;7.70;99.90;7.00;101210;;;;599881;235;23996;-77
2023/12/17 06:14:23;;;;;;;1.17;1.17;;;7.70;99.90;6.90;101209;;;;599436;235;24014;-75
2023/12/17 06:16:51;;;;;;;0.67;0.67;;;7.70;99.90;6.90;101199;;;;600777;235;24063;-76
2023/12/17 06:19:19;;;;;;;1.70;0.90;;;7.70;99.90;7.00;101204;;;;601002;234;24015;-76
2023/12/17 06:21:48;;;;;;;6.77;1.30;;;7.70;99.90;6.90;101214;;;;601045;234;24053;-76
2023/12/17 06:24:15;;;;;;;1.00;1.00;;;7.70;99.90;6.90;101211;;;;603908;234;24012;-76
2023/12/17 06:26:44;;;;;;;0.70;0.70;;;7.70;99.90;6.90;101215;;;;600713;235;25134;-75
2023/12/17 06:29:14;;;;;;;3.13;1.13;;;7.70;99.90;6.90;101230;;;;600529;235;24009;-76
2023/12/17 06:31:40;;;;;;;0.80;0.80;;;7.70;99.90;6.90;101229;;;;603549;235;24007;-75
2023/12/17 06:34:08;;;;;;;1.93;0.53;;;7.70;99.90;6.90;101227;;;;603544;235;24010;-76
2023/12/17 06:36:37;;;;;;;0.70;0.70;;;7.70;99.90;7.00;101240;;;;600245;235;24053;-75
2023/12/17 06:39:09;;;;;;;1.20;1.20;;;7.70;99.90;7.00;101233;;;;602423;235;24010;-76
2023/12/17 06:41:32;;;;;;;0.97;0.90;;;7.70;99.90;7.00;101244;;;;598987;235;24017;-75
2023/12/17 06:44:00;;;;;;;0.70;0.63;;;7.70;99.90;7.00;101236;;;;599653;235;23987;-74
2023/12/17 06:46:29;;;;;;;1.70;1.27;;;7.80;99.90;7.00;101226;;;;599900;235;24022;-75
2023/12/17 06:49:01;;;;;;;2.20;1.03;;;7.80;99.90;7.10;101220;;;;599587;235;24016;-75
2023/12/17 06:51:25;;;;;;;1.57;0.80;;;7.80;99.90;7.10;101218;;;;602474;235;24057;-75
2023/12/17 06:53:53;;;;;;;0.30;0.30;;;7.80;99.90;7.10;101217;;;;602574;235;23987;-76
2023/12/17 06:56:21;;;;;;;0.70;0.70;;;7.80;99.90;7.10;101216;;;;602437;235;24018;-76
2023/12/17 06:58:48;;;;;;;1.27;0.33;;;7.90;99.90;7.10;101229;;;;599425;235;24016;-78
2023/12/17 07:01:16;;;;;;;2.07;0.73;;;7.90;99.90;7.10;101239;;;;599970;235;24029;-78
2023/12/17 07:03:44;;;;;;;0.40;0.40;;;7.90;99.90;7.20;101238;;;;600337;235;23995;-77
2023/12/17 07:06:12;;;;;;;1.20;1.10;;;7.90;99.90;7.20;101230;;;;600604;235;24074;-78
2023/12/17 07:08:41;;;;;;;0.83;0.83;;;7.90;99.90;7.20;101236;;;;599764;235;24022;-77
2023/12/17 07:11:09;;;;;;;2.77;1.07;;;7.90;99.90;7.20;101235;;;;599933;235;24086;-76
2023/12/17 07:13:40;;;;;;;0.57;0.57;;;7.90;99.90;7.20;101236;;;;603042;234;23988;-77
2023/12/17 07:16:04;;;;;;;0.83;0.67;;;8.00;99.90;7.20;101222;;;;602052;235;24030;-76
2023/12/17 07:18:32;;;;;;;0.70;0.57;;;8.00;99.90;7.20;101234;;;;602584;235;24074;-77
2023/12/17 07:21:00;;;;;;;0.87;0.70;;;8.00;99.90;7.20;101223;;;;599785;235;24066;-77
2023/12/17 07:23:28;;;;;;;2.93;1.10;;;8.00;99.90;7.30;101225;;;;599747;235;23995;-76
2023/12/17 07:25:56;;;;;;;0.90;0.83;;;8.00;99.90;7.30;101230;;;;599508;235;24034;-75
2023/12/17 07:28:24;;;;;;;1.07;0.63;;;8.00;99.90;7.30;101218;;;;599800;235;23991;-76
2023/12/17 07:30:52;;;;;;;0.40;0.37;;;8.00;99.90;7.30;101205;;;;600902;234;25041;-79
2023/12/17 07:33:21;;;;;;;0.47;0.20;;;8.10;99.90;7.30;101202;;;;600970;234;23999;-79
2023/12/17 07:35:52;;;;;;;0.20;0.20;;;8.10;99.90;7.30;101210;;;;600682;234;24015;-76
2023/12/17 07:38:16;;;;;;;0.37;0.37;;;8.10;99.90;7.40;101215;;;;603191;235;24014;-79
2023/12/17 07:40:44;;;;;;;0.67;0.50;;;8.10;99.90;7.40;101212;;;;603084;234;24063;-77
2023/12/17 07:43:12;;;;;;;0.50;0.50;;;8.20;99.90;7.40;101220;;;;604098;234;24006;-78
2023/12/17 07:45:40;;;;;;;1.00;0.70;;;8.20;99.90;7.40;101220;;;;601412;235;24065;-77
2023/12/17 07:48:08;;;;;;;0.67;0.47;;;8.20;99.90;7.40;101210;;;;600409;235;24064;-76
2023/12/17 07:50:40;;;;;;;0.23;0.23;;;8.20;99.90;7.50;101214;;;;599888;235;24011;-77
2023/12/17 07:53:04;;;;;;;0.73;0.50;;;8.20;99.90;7.50;101215;;;;602311;235;24066;-79
2023/12/17 07:55:32;;;;;;;0.97;0.90;;;8.30;99.90;7.50;101219;;;;599707;235;24040;-80
2023/12/17 07:58:00;;;;;;;1.07;0.50;;;8.30;99.90;7.50;101225;;;;600382;235;24021;-79
2023/12/17 08:00:28;;;;;;;0.80;0.70;;;8.30;99.90;7.60;101227;;;;599599;235;23994;-75
2023/12/17 08:02:55;;;;;;;0.53;0.53;;;8.30;99.90;7.60;101237;;;;603404;235;23987;-77
2023/12/17 08:05:23;;;;;;;1.30;1.20;;;8.40;99.90;7.60;101226;;;;600123;235;23999;-76
2023/12/17 08:07:51;;;;;;;0.57;0.57;;;8.40;99.90;7.60;101218;;;;600352;235;24002;-78
2023/12/17 08:10:19;;;;;;;0.77;0.77;;;8.40;99.90;7.60;101235;;;;599270;235;23998;-76
2023/12/17 08:12:47;;;;;;;1.00;1.00;;;8.40;99.90;7.70;101246;;;;600176;235;24048;-77
2023/12/17 08:15:15;;;;;;;1.10;0.93;;;8.40;99.90;7.70;101222;;;;603158;235;23991;-75
2023/12/17 08:17:43;;;;;;;0.80;0.50;;;8.40;99.90;7.70;101237;;;;600057;235;23998;-77
2023/12/17 08:20:11;;;;;;;1.10;1.00;;;8.50;99.90;7.70;101225;;;;600044;235;24002;-77
2023/12/17 08:22:39;;;;;;;4.80;0.77;;;8.50;99.90;7.70;101219;;;;599336;235;23996;-76
2023/12/17 08:25:07;;;;;;;1.87;1.20;;;8.50;99.90;7.80;101217;;;;602868;235;24017;-76
2023/12/17 08:27:35;;;;;;;1.77;1.20;;;8.60;99.90;7.80;101205;;;;603341;235;24089;-78
2023/12/17 08:30:02;;;;;;;1.53;1.23;;;8.60;99.90;7.80;101203;;;;599950;235;24007;-78
2023/12/17 08:32:34;;;;;;;1.43;0.70;;;8.60;99.90;7.80;101201;;;;599766;235;24010;-83
2023/12/17 08:35:01;;;;;;;1.10;1.00;;;8.60;99.90;7.80;101187;;;;599489;235;24026;-76
2023/12/17 08:37:30;;;;;;;0.70;0.67;;;8.60;99.90;7.80;101181;;;;603028;235;25067;-77
2023/12/17 08:39:58;;;;;;;1.17;1.07;;;8.60;99.90;7.80;101190;;;;599548;235;24469;-80
2023/12/17 08:42:26;;;;;;;1.33;1.20;;;8.60;99.90;7.90;101194;;;;602022;234;24011;-81
2023/12/17 08:44:54;;;;;;;0.93;0.83;;;8.70;99.90;7.90;101191;;;;604264;234;24028;-77
2023/12/17 08:47:21;;;;;;;1.43;1.33;;;8.70;99.90;8.00;101202;;;;604456;234;23993;-76
2023/12/17 08:49:49;;;;;;;3.70;1.70;;;8.80;99.90;8.00;101194;;;;599255;233;34790;-82
2023/12/17 08:52:17;;;;;;;2.43;1.37;;;8.80;99.90;8.00;101201;;;;603401;235;24098;-83
2023/12/17 08:54:45;;;;;;;1.73;1.30;;;8.80;99.90;8.10;101195;;;;600477;235;24002;-82
2023/12/17 08:57:13;;;;;;;0.80;0.80;;;8.80;99.90;8.10;101190;;;;600094;235;24007;-78
2023/12/17 08:59:44;;;;;;;1.90;1.40;;;8.90;99.90;8.10;101185;;;;603511;235;23990;-80
2023/12/17 09:02:12;;;;;;;1.03;0.97;;;8.90;99.90;8.20;101190;;;;603710;235;24095;-81
2023/12/17 09:04:40;;;;;;;2.23;1.43;;;9.00;99.90;8.30;101208;;;;600566;235;23994;-80
2023/12/17 09:07:08;;;;;;;2.87;1.57;;;9.00;99.90;8.30;101198;;;;600691;235;24005;-83
2023/12/17 09:09:35;;;;;;;2.63;1.30;;;9.10;99.90;8.30;101215;;;;600346;235;24063;-85
2023/12/17 09:12:06;;;;;;;2.03;1.40;;;9.10;99.90;8.30;101208;;;;600112;235;24025;-83
2023/12/17 09:14:31;;;;;;;1.27;1.10;;;9.10;99.90;8.30;101226;;;;602892;235;24085;-84
2023/12/17 09:16:59;;;;;;;1.40;0.77;;;9.10;99.90;8.20;101214;;;;600503;235;24093;-76
2023/12/17 09:19:27;;;;;;;1.37;1.00;;;9.00;99.90;8.20;101224;;;;600256;235;24005;-76
2023/12/17 09:21:55;;;;;;;2.43;1.10;;;9.00;99.90;8.20;101225;;;;600142;235;24006;-76
2023/12/17 09:24:23;;;;;;;2.47;1.20;;;9.00;99.90;8.20;101230;;;;599838;235;24025;-77
2023/12/17 09:26:55;;;;;;;1.07;1.07;;;9.00;99.90;8.20;101230;;;;599776;235;23991;-84
2023/12/17 09:29:20;;;;;;;2.33;1.33;;;9.00;99.90;8.30;101232;;;;602107;235;24081;-75
2023/12/17 09:31:50;;;;;;;1.00;1.00;;;9.00;99.90;8.30;101236;;;;599193;235;23998;-83
2023/12/17 09:34:14;;;;;;;2.37;1.60;;;9.10;99.90;8.30;101245;;;;601518;235;24021;-82
2023/12/17 09:36:46;;;;;;;1.87;1.17;;;9.10;99.90;8.40;101237;;;;602857;235;24047;-78
2023/12/17 09:39:15;;;;;;;0.93;0.93;;;9.10;99.90;8.40;101237;;;;599979;235;24024;-79
2023/12/17 09:41:42;;;;;;;3.90;1.50;;;9.20;99.90;8.50;101231;;;;601755;235;24023;-75
2023/12/17 09:44:07;;;;;;;1.00;0.83;;;9.30;99.90;8.50;101232;;;;602236;235;24056;-76
2023/12/17 09:46:37;;;;;;;1.83;1.17;;;9.30;99.90;8.60;101229;;;;603075;234;24015;-75
2023/12/17 09:49:09;;;;;;;3.70;1.57;;;9.30;99.90;8.60;101234;;;;599462;235;24055;-78
2023/12/17 09:51:33;;;;;;;1.40;1.30;;;9.30;99.90;8.60;101248;;;;602116;235;24003;-75
2023/12/17 09:54:05;;;;;;;3.90;1.20;;;9.40;99.90;8.60;101240;;;;603853;233;24003;-77
2023/12/17 09:56:29;;;;;;;1.53;1.43;;;9.40;99.90;8.60;101244;;;;598256;234;34758;-76
2023/12/17 09:58:57;;;;;;;2.07;1.50;;;9.40;99.90;8.50;101229;;;;600200;234;24066;-75
2023/12/17 10:01:25;;;;;;;1.57;1.40;;;9.30;99.90;8.50;101237;;;;600688;235;24015;-81
2023/12/17 10:03:53;;;;;;;1.13;1.03;;;9.30;99.90;8.50;101234;;;;608981;231;24083;-76
2023/12/17 10:06:21;;;;;;;1.77;1.47;;;9.30;99.90;8.50;101228;;;;604064;235;24015;-78
2023/12/17 10:08:49;;;;;;;2.13;1.93;;;9.30;99.90;8.50;101254;;;;600225;235;24037;-77
2023/12/17 10:11:17;;;;;;;1.30;1.20;;;9.20;99.90;8.40;101237;;;;599986;235;24074;-75
2023/12/17 10:13:44;;;;;;;4.30;2.00;;;9.20;99.90;8.40;101246;;;;599742;235;24003;-76
2023/12/17 10:16:16;;;;;;;1.70;1.60;;;9.20;99.90;8.40;101242;;;;599841;235;24069;-77
2023/12/17 10:18:41;;;;;;;3.03;2.30;;;9.10;99.90;8.40;101242;;;;594474;235;34792;-76
2023/12/17 10:21:09;;;;;;;3.57;1.73;;;9.20;99.90;8.40;101248;;;;602344;235;23992;-77
2023/12/17 10:23:53;;;;;;;1.47;1.37;;;9.20;99.90;8.50;101240;;;;600167;235;24033;-76
2023/12/17 10:26:17;;;;;;;2.00;1.57;;;9.30;99.90;8.50;101253;;;;602478;235;24063;-76
2023/12/17 10:28:47;;;;;;;3.03;1.63;;;9.30;99.90;8.60;101250;;;;600666;235;24034;-76
2023/12/17 10:31:16;;;;;;;3.03;1.60;;;9.30;99.90;8.50;101244;;;;603695;235;24067;-84
2023/12/17 10:33:46;;;;;;;1.07;1.00;;;9.30;99.90;8.50;101243;;;;602831;235;24004;-78
2023/12/17 10:36:14;;;;;;;1.60;1.50;;;9.30;99.90;8.60;101236;;;;597682;235;24021;-84
2023/12/17 10:38:42;;;;;;;1.23;1.17;;;9.40;99.90;8.60;101230;;;;602492;235;24008;-84
2023/12/17 10:41:10;;;;;;;1.00;1.00;;;9.40;99.90;8.70;101220;;;;602986;235;23998;-85
2023/12/17 10:43:37;;;;;;;0.93;0.93;;;9.40;99.90;8.70;101237;;;;603268;235;23994;-79
2023/12/17 10:46:05;;;;;;;4.80;1.10;;;9.50;99.90;8.70;101225;;;;603446;234;23992;-86
2023/12/17 10:48:33;;;;;;;2.50;1.20;;;9.50;99.90;8.70;101212;;;;603569;235;24061;-84
2023/12/17 10:51:02;;;;;;;2.10;1.40;;;9.50;99.90;8.80;101218;;;;600732;235;24003;-78
2023/12/17 10:53:29;;;;;;;1.93;1.67;;;9.60;99.90;8.80;101203;;;;600387;235;24000;-75
2023/12/17 10:55:57;;;;;;;3.13;1.70;;;9.60;99.90;8.80;101197;;;;599992;235;24054;-80
2023/12/17 10:58:25;;;;;;;1.60;1.30;;;9.60;99.90;8.90;101194;;;;604789;232;24000;-80
2023/12/17 11:00:57;;;;;;;2.30;1.10;;;9.60;99.90;8.90;101202;;;;603695;235;24094;-81
2023/12/17 11:03:24;;;;;;;2.10;1.40;;;9.70;99.90;8.90;101197;;;;602385;233;24014;-79
2023/12/17 11:06:01;;;;;;;1.00;0.97;;;9.70;99.90;9.00;101194;;;;603854;233;24029;-79
2023/12/17 11:08:29;;;;;;;1.70;1.40;;;9.70;99.90;9.00;101192;;;;603531;234;24039;-78
2023/12/17 11:11:00;;;;;;;5.33;1.33;;;9.70;99.90;9.00;101176;;;;601539;234;24024;-82
2023/12/17 11:13:28;;;;;;;1.37;1.27;;;9.70;99.90;9.00;101168;;;;603654;235;24045;-81
2023/12/17 11:15:53;;;;;;;3.20;1.60;;;9.70;99.90;9.00;101164;;;;603109;235;24009;-78
2023/12/17 11:18:24;;;;;;;2.53;1.53;;;9.70;99.90;9.00;101160;;;;603645;235;24014;-78
2023/12/17 11:20:49;;;;;;;4.03;1.70;;;9.80;99.90;9.00;101164;;;;603907;232;24034;-77
2023/12/17 11:23:20;;;;;;;2.13;1.33;;;9.70;99.90;9.00;101168;;;;603390;235;24007;-78
2023/12/17 11:25:48;;;;;;;3.03;1.83;;;9.70;99.90;9.00;101156;;;;602742;235;24083;-78
2023/12/17 11:28:27;;;;;;;5.03;1.57;;;9.80;99.90;9.00;101163;;;;603804;235;24048;-82